createdAt,value
2023-02-20T00:02:24.194Z,7.11
2023-02-20T00:04:52.557Z,7.11
2023-02-20T00:07:20.831Z,7.10
2023-02-20T00:09:50.586Z,7.09
2023-02-20T00:12:18.859Z,7.11
2023-02-20T00:14:47.150Z,7.14
2023-02-20T00:17:15.439Z,7.17
2023-02-20T00:19:43.789Z,7.19
2023-02-20T00:22:12.014Z,7.21
2023-02-20T00:24:40.341Z,7.21
2023-02-20T00:27:10.359Z,7.21
2023-02-20T00:29:38.628Z,7.20
2023-02-20T00:32:07.355Z,7.20
2023-02-20T00:34:35.582Z,7.21
2023-02-20T00:37:03.876Z,7.24
2023-02-20T00:39:33.514Z,7.28
2023-02-20T00:42:02.015Z,7.34
2023-02-20T00:44:31.727Z,7.37
2023-02-20T00:46:59.966Z,7.39
2023-02-20T00:49:28.378Z,7.41
2023-02-20T00:51:56.684Z,7.45
2023-02-20T00:54:25.053Z,7.46
2023-02-20T00:56:53.310Z,7.48
2023-02-20T00:59:21.554Z,7.48
2023-02-20T01:01:51.287Z,7.49
2023-02-20T01:04:19.818Z,7.50
2023-02-20T01:06:48.209Z,7.53
2023-02-20T01:09:16.709Z,7.55
2023-02-20T01:11:46.267Z,7.57
2023-02-20T01:14:15.191Z,7.58
2023-02-20T01:16:47.015Z,7.58
2023-02-20T01:19:17.206Z,7.57
2023-02-20T01:21:45.794Z,7.55
2023-02-20T01:24:14.088Z,7.53
2023-02-20T01:26:42.924Z,7.51
2023-02-20T01:29:11.377Z,7.50
2023-02-20T01:31:40.039Z,7.55
2023-02-20T01:34:08.338Z,7.57
2023-02-20T01:36:38.159Z,7.57
2023-02-20T01:39:06.416Z,7.59
2023-02-20T01:41:34.698Z,7.58
2023-02-20T01:44:02.932Z,7.57
2023-02-20T01:46:52.753Z,7.55
2023-02-20T01:49:30.031Z,7.54
2023-02-20T01:52:09.037Z,7.58
2023-02-20T01:54:39.382Z,7.61
2023-02-20T01:57:11.559Z,7.66
2023-02-20T01:59:42.443Z,7.69
2023-02-20T02:02:12.308Z,7.73
2023-02-20T02:04:41.555Z,7.77
2023-02-20T02:07:12.412Z,7.81
2023-02-20T02:09:45.640Z,7.83
2023-02-20T02:12:14.443Z,7.85
2023-02-20T02:14:42.735Z,7.86
2023-02-20T02:17:48.752Z,7.85
2023-02-20T02:21:15.467Z,7.80
2023-02-20T02:24:48.256Z,7.76
2023-02-20T02:27:56.222Z,7.75
2023-02-20T02:31:18.999Z,7.76
2023-02-20T02:34:41.953Z,7.77
2023-02-20T02:37:20.259Z,7.82
2023-02-20T02:39:56.363Z,7.87
2023-02-20T02:42:33.894Z,7.92
2023-02-20T02:45:11.662Z,7.94
2023-02-20T02:47:47.785Z,7.99
2023-02-20T02:50:23.287Z,8.01
2023-02-20T02:52:54.099Z,8.02
2023-02-20T02:55:26.327Z,8.06
2023-02-20T02:57:55.017Z,8.06
2023-02-20T03:00:26.789Z,8.08
2023-02-20T03:03:02.928Z,8.08
2023-02-20T03:05:41.159Z,8.06
2023-02-20T03:08:31.371Z,8.03
2023-02-20T03:11:03.545Z,8.01
2023-02-20T03:13:52.490Z,7.98
2023-02-20T03:16:28.782Z,7.94
2023-02-20T03:19:02.236Z,7.92
2023-02-20T03:21:34.589Z,7.90
2023-02-20T03:24:06.654Z,7.88
2023-02-20T03:26:37.288Z,7.87
2023-02-20T03:29:11.455Z,7.86
2023-02-20T03:31:46.833Z,7.85
2023-02-20T03:34:37.496Z,7.85
2023-02-20T03:37:29.327Z,7.81
2023-02-20T03:40:21.873Z,7.80
2023-02-20T03:43:14.419Z,7.78
2023-02-20T03:45:44.787Z,7.78
2023-02-20T03:48:18.087Z,7.80
2023-02-20T03:50:46.564Z,7.79
2023-02-20T03:53:15.152Z,7.80
2023-02-20T03:55:47.326Z,7.81
2023-02-20T03:58:23.158Z,7.85
2023-02-20T04:00:55.007Z,7.88
2023-02-20T04:03:28.292Z,7.90
2023-02-20T04:06:00.310Z,7.91
2023-02-20T04:08:35.923Z,7.95
2023-02-20T04:11:10.436Z,7.94
2023-02-20T04:13:41.072Z,7.99
2023-02-20T04:16:10.529Z,8.02
2023-02-20T04:18:39.004Z,8.05
2023-02-20T04:21:14.444Z,8.10
2023-02-20T04:23:46.495Z,8.16
2023-02-20T04:26:20.165Z,8.18
2023-02-20T04:28:49.288Z,8.20
2023-02-20T04:31:19.242Z,8.23
2023-02-20T04:33:47.707Z,8.25
2023-02-20T04:36:16.010Z,8.27
2023-02-20T04:38:44.194Z,8.30
2023-02-20T04:41:12.483Z,8.31
2023-02-20T04:43:42.187Z,8.32
2023-02-20T04:46:10.620Z,8.33
2023-02-20T04:48:39.011Z,8.35
2023-02-20T04:51:07.684Z,8.35
2023-02-20T04:53:36.007Z,8.38
2023-02-20T04:56:04.214Z,8.44
2023-02-20T04:58:34.116Z,8.48
2023-02-20T05:01:03.863Z,8.53
2023-02-20T05:03:32.178Z,8.56
2023-02-20T05:06:00.384Z,8.61
2023-02-20T05:08:31.988Z,8.63
2023-02-20T05:11:00.357Z,8.65
2023-02-20T05:13:28.781Z,8.64
2023-02-20T05:15:57.054Z,8.65
2023-02-20T05:18:28.066Z,8.64
2023-02-20T05:21:13.833Z,8.62
2023-02-20T05:23:42.053Z,8.58
2023-02-20T05:26:11.897Z,8.60
2023-02-20T05:28:40.861Z,8.61
2023-02-20T05:31:09.353Z,8.67
2023-02-20T05:33:39.019Z,8.69
2023-02-20T05:36:08.751Z,8.72
2023-02-20T05:38:37.998Z,8.76
2023-02-20T05:41:06.757Z,8.79
2023-02-20T05:43:35.323Z,8.77
2023-02-20T05:46:03.665Z,8.77
2023-02-20T05:48:31.957Z,8.79
2023-02-20T05:51:01.748Z,8.83
2023-02-20T05:53:30.654Z,8.87
2023-02-20T05:55:59.679Z,8.87
2023-02-20T05:58:28.137Z,8.84
2023-02-20T06:00:56.427Z,8.83
2023-02-20T06:03:24.807Z,8.86
2023-02-20T06:05:56.380Z,8.88
2023-02-20T06:08:26.035Z,8.94
2023-02-20T06:10:54.329Z,9.00
2023-02-20T06:13:22.742Z,9.05
2023-02-20T06:15:50.991Z,9.09
2023-02-20T06:18:19.266Z,9.13
2023-02-20T06:20:47.832Z,9.16
2023-02-20T06:23:16.080Z,9.19
2023-02-20T06:25:45.809Z,9.22
2023-02-20T06:28:14.139Z,9.24
2023-02-20T06:30:42.387Z,9.27
2023-02-20T06:33:10.683Z,9.29
2023-02-20T06:35:38.932Z,9.31
2023-02-20T06:38:07.244Z,9.33
2023-02-20T06:40:35.616Z,9.35
2023-02-20T06:43:05.240Z,9.38
2023-02-20T06:45:33.508Z,9.39
2023-02-20T06:48:01.788Z,9.42
2023-02-20T06:50:30.032Z,9.43
2023-02-20T06:52:58.292Z,9.44
2023-02-20T06:55:26.720Z,9.46
2023-02-20T06:57:55.150Z,9.47
2023-02-20T07:00:25.072Z,9.49
2023-02-20T07:02:53.597Z,9.50
2023-02-20T07:05:22.067Z,9.50
2023-02-20T07:07:50.450Z,9.52
2023-02-20T07:10:19.076Z,9.54
2023-02-20T07:12:47.399Z,9.55
2023-02-20T07:15:15.837Z,9.55
2023-02-20T07:17:45.423Z,9.55
2023-02-20T07:20:13.794Z,9.57
2023-02-20T07:22:50.712Z,9.57
2023-02-20T07:25:19.022Z,9.59
2023-02-20T07:27:47.322Z,9.60
2023-02-20T07:30:15.750Z,9.62
2023-02-20T07:32:45.411Z,9.62
2023-02-20T07:35:13.636Z,9.64
2023-02-20T07:37:41.878Z,9.66
2023-02-20T07:40:11.289Z,9.68
2023-02-20T07:42:39.539Z,9.71
2023-02-20T07:45:08.939Z,9.72
2023-02-20T07:47:37.300Z,9.73
2023-02-20T07:50:07.954Z,9.74
2023-02-20T07:52:36.305Z,9.75
2023-02-20T07:55:04.807Z,9.77
2023-02-20T07:57:35.697Z,9.81
2023-02-20T08:00:04.716Z,9.82
2023-02-20T08:02:33.028Z,9.83
2023-02-20T08:05:01.609Z,9.87
2023-02-20T08:07:31.354Z,9.89
2023-02-20T08:10:00.182Z,9.89
2023-02-20T08:12:28.520Z,9.88
2023-02-20T08:14:56.703Z,9.89
2023-02-20T08:17:29.624Z,9.91
2023-02-20T08:20:02.653Z,9.94
2023-02-20T08:22:41.349Z,9.99
2023-02-20T08:25:10.540Z,10.03
2023-02-20T08:27:43.326Z,10.07
2023-02-20T08:30:14.770Z,10.08
2023-02-20T08:32:43.145Z,10.11
2023-02-20T08:35:11.512Z,10.14
2023-02-20T08:37:41.132Z,10.16
2023-02-20T08:40:11.337Z,10.20
2023-02-20T08:42:39.693Z,10.21
2023-02-20T08:45:10.159Z,10.21
2023-02-20T08:47:38.636Z,10.21
2023-02-20T08:50:07.604Z,10.22
2023-02-20T08:52:35.913Z,10.24
2023-02-20T08:55:06.235Z,10.26
2023-02-20T08:57:34.518Z,10.26
2023-02-20T09:00:02.906Z,10.27
2023-02-20T09:02:31.210Z,10.29
2023-02-20T09:04:59.463Z,10.30
2023-02-20T09:07:27.850Z,10.34
2023-02-20T09:09:56.239Z,10.37
2023-02-20T09:12:26.031Z,10.42
2023-02-20T09:14:54.450Z,10.47
2023-02-20T09:17:22.821Z,10.47
2023-02-20T09:19:51.099Z,10.44
2023-02-20T09:22:24.215Z,10.43
2023-02-20T09:24:53.250Z,10.41
2023-02-20T09:27:22.610Z,10.42
2023-02-20T09:29:52.587Z,10.44
2023-02-20T09:32:21.000Z,10.45
2023-02-20T09:34:49.505Z,10.44
2023-02-20T09:37:17.810Z,10.43
2023-02-20T09:39:46.061Z,10.42
2023-02-20T09:42:30.644Z,10.42
2023-02-20T09:45:12.114Z,10.44
2023-02-20T09:47:57.482Z,10.46
2023-02-20T09:50:34.417Z,10.48
2023-02-20T09:53:12.376Z,10.50
2023-02-20T09:55:42.816Z,10.53
2023-02-20T09:58:22.827Z,10.52
2023-02-20T10:00:53.164Z,10.52
2023-02-20T10:03:30.668Z,10.50
2023-02-20T10:05:59.100Z,10.51
2023-02-20T10:08:27.451Z,10.50
2023-02-20T10:11:03.413Z,10.51
2023-02-20T10:13:47.767Z,10.51
2023-02-20T10:16:30.192Z,10.52
2023-02-20T10:19:15.477Z,10.53
2023-02-20T10:21:55.376Z,10.56
2023-02-20T10:24:38.630Z,10.59
2023-02-20T10:27:23.569Z,10.61
2023-02-20T10:29:52.844Z,10.61
2023-02-20T10:32:31.036Z,10.61
2023-02-20T10:35:05.591Z,10.63
2023-02-20T10:37:47.475Z,10.67
2023-02-20T10:40:25.595Z,10.68
2023-02-20T10:43:03.143Z,10.70
2023-02-20T10:45:57.022Z,10.78
2023-02-20T10:48:31.724Z,10.80
2023-02-20T10:51:07.578Z,10.81
2023-02-20T10:53:42.361Z,10.82
2023-02-20T10:56:14.765Z,10.83
2023-02-20T10:58:48.758Z,10.87
2023-02-20T11:01:22.968Z,10.93
2023-02-20T11:03:59.654Z,10.98
2023-02-20T11:06:34.153Z,10.99
2023-02-20T11:09:02.475Z,11.02
2023-02-20T11:11:35.113Z,11.05
2023-02-20T11:14:14.307Z,11.05
2023-02-20T11:16:48.577Z,11.08
2023-02-20T11:19:23.523Z,11.16
2023-02-20T11:21:53.451Z,11.20
2023-02-20T11:24:34.673Z,11.21
2023-02-20T11:27:11.102Z,11.24
2023-02-20T11:29:48.400Z,11.30
2023-02-20T11:32:31.825Z,11.30
2023-02-20T11:35:40.926Z,11.28
2023-02-20T11:38:33.957Z,11.25
2023-02-20T11:41:26.143Z,11.22
2023-02-20T11:44:20.639Z,11.25
2023-02-20T11:46:50.103Z,11.27
2023-02-20T11:49:27.160Z,11.27
2023-02-20T11:52:11.280Z,11.24
2023-02-20T11:54:39.551Z,11.27
2023-02-20T11:57:22.851Z,11.30
2023-02-20T11:59:52.657Z,11.30
2023-02-20T12:02:29.810Z,11.29
2023-02-20T12:05:20.212Z,11.31
2023-02-20T12:08:00.357Z,11.35
2023-02-20T12:10:40.514Z,11.39
2023-02-20T12:13:13.637Z,11.43
2023-02-20T12:15:41.932Z,11.45
2023-02-20T12:18:37.493Z,11.45
2023-02-20T12:21:29.463Z,11.50
2023-02-20T12:24:16.790Z,11.52
2023-02-20T12:26:58.311Z,11.55
2023-02-20T12:29:43.679Z,11.60
2023-02-20T12:32:27.701Z,11.65
2023-02-20T12:35:28.910Z,11.66
2023-02-20T12:38:23.545Z,11.69
2023-02-20T12:41:25.351Z,11.71
2023-02-20T12:44:25.467Z,11.71
2023-02-20T12:47:05.371Z,11.73
2023-02-20T12:50:07.848Z,11.74
2023-02-20T12:53:05.844Z,11.74
2023-02-20T12:55:44.863Z,11.73
2023-02-20T12:58:30.643Z,11.75
2023-02-20T13:01:02.992Z,11.76
2023-02-20T13:03:45.640Z,11.78
2023-02-20T13:06:22.876Z,11.80
2023-02-20T13:09:04.815Z,11.79
2023-02-20T13:11:40.462Z,11.80
2023-02-20T13:14:32.237Z,11.83
2023-02-20T13:17:13.466Z,11.83
2023-02-20T13:19:50.604Z,11.85
2023-02-20T13:22:19.471Z,11.87
2023-02-20T13:24:47.736Z,11.89
2023-02-20T13:27:32.080Z,11.93
2023-02-20T13:30:10.928Z,11.97
2023-02-20T13:32:39.315Z,11.98
2023-02-20T13:35:35.782Z,12.01
2023-02-20T13:38:15.582Z,12.07
2023-02-20T13:40:46.042Z,12.09
2023-02-20T13:43:30.524Z,12.12
2023-02-20T13:46:25.028Z,12.16
2023-02-20T13:48:56.290Z,12.17
2023-02-20T13:51:37.259Z,12.20
2023-02-20T13:54:30.036Z,12.24
2023-02-20T13:57:04.927Z,12.29
2023-02-20T13:59:37.525Z,12.32
2023-02-20T14:02:20.633Z,12.32
2023-02-20T14:04:58.713Z,12.33
2023-02-20T14:07:33.746Z,12.34
2023-02-20T14:10:04.565Z,12.31
2023-02-20T14:12:34.513Z,12.28
2023-02-20T14:15:07.067Z,12.24
2023-02-20T14:17:39.678Z,12.22
2023-02-20T14:20:19.953Z,12.20
2023-02-20T14:22:48.230Z,12.23
2023-02-20T14:25:29.643Z,12.25
2023-02-20T14:28:13.082Z,12.24
2023-02-20T14:30:42.313Z,12.25
2023-02-20T14:33:25.011Z,12.30
2023-02-20T14:36:21.455Z,12.34
2023-02-20T14:39:06.193Z,12.33
2023-02-20T14:41:34.634Z,12.35
2023-02-20T14:44:05.623Z,12.35
2023-02-20T14:46:37.132Z,12.34
2023-02-20T14:49:10.707Z,12.34
2023-02-20T14:51:39.100Z,12.35
2023-02-20T14:54:20.628Z,12.34
2023-02-20T14:56:50.502Z,12.34
2023-02-20T14:59:27.318Z,12.34
2023-02-20T15:01:58.614Z,12.31
2023-02-20T15:04:29.231Z,12.31
2023-02-20T15:07:05.430Z,12.31
2023-02-20T15:09:39.827Z,12.31
2023-02-20T15:12:09.564Z,12.36
2023-02-20T15:14:43.832Z,12.39
2023-02-20T15:17:24.274Z,12.39
2023-02-20T15:19:54.513Z,12.43
2023-02-20T15:22:26.731Z,12.46
2023-02-20T15:24:56.350Z,12.44
2023-02-20T15:27:27.294Z,12.43
2023-02-20T15:30:13.422Z,12.43
2023-02-20T15:32:43.737Z,12.45
2023-02-20T15:35:18.637Z,12.44
2023-02-20T15:37:49.842Z,12.45
2023-02-20T15:40:24.275Z,12.45
2023-02-20T15:42:57.011Z,12.44
2023-02-20T15:45:27.290Z,12.44
2023-02-20T15:47:56.408Z,12.44
2023-02-20T15:50:27.372Z,12.43
2023-02-20T15:52:57.017Z,12.40
2023-02-20T15:55:26.230Z,12.39
2023-02-20T15:57:58.631Z,12.40
2023-02-20T16:00:30.646Z,12.41
2023-02-20T16:02:59.037Z,12.42
2023-02-20T16:05:29.347Z,12.41
2023-02-20T16:07:57.937Z,12.40
2023-02-20T16:10:26.763Z,12.39
2023-02-20T16:12:56.756Z,12.37
2023-02-20T16:15:26.466Z,12.37
2023-02-20T16:17:55.691Z,12.34
2023-02-20T16:20:29.857Z,12.30
2023-02-20T16:22:58.310Z,12.28
2023-02-20T16:25:27.412Z,12.26
2023-02-20T16:27:57.513Z,12.24
2023-02-20T16:30:34.282Z,12.23
2023-02-20T16:33:03.819Z,12.21
2023-02-20T16:35:33.432Z,12.18
2023-02-20T16:38:01.859Z,12.15
2023-02-20T16:40:30.299Z,12.15
2023-02-20T16:42:58.518Z,12.10
2023-02-20T16:45:26.924Z,12.05
2023-02-20T16:47:57.307Z,11.99
2023-02-20T16:50:29.968Z,11.94
2023-02-20T16:53:03.271Z,11.88
2023-02-20T16:55:34.467Z,11.82
2023-02-20T16:58:03.061Z,11.76
2023-02-20T17:00:35.020Z,11.70
2023-02-20T17:03:06.884Z,11.66
2023-02-20T17:05:38.472Z,11.61
2023-02-20T17:08:08.689Z,11.58
2023-02-20T17:10:36.995Z,11.55
2023-02-20T17:13:05.261Z,11.51
2023-02-20T17:15:34.531Z,11.49
2023-02-20T17:18:03.922Z,11.46
2023-02-20T17:20:33.048Z,11.42
2023-02-20T17:23:05.500Z,11.37
2023-02-20T17:25:35.998Z,11.34
2023-02-20T17:28:05.831Z,11.30
2023-02-20T17:30:34.218Z,11.29
2023-02-20T17:33:02.520Z,11.27
2023-02-20T17:35:30.787Z,11.27
2023-02-20T17:37:59.109Z,11.23
2023-02-20T17:40:27.450Z,11.22
2023-02-20T17:42:57.082Z,11.19
2023-02-20T17:45:25.316Z,11.15
2023-02-20T17:47:53.687Z,11.12
2023-02-20T17:50:22.155Z,11.08
2023-02-20T17:52:55.418Z,11.05
2023-02-20T17:55:27.545Z,11.03
2023-02-20T17:57:57.160Z,11.02
2023-02-20T18:00:25.782Z,11.03
2023-02-20T18:02:54.149Z,11.04
2023-02-20T18:05:22.364Z,11.05
2023-02-20T18:07:50.687Z,11.06
2023-02-20T18:10:19.821Z,11.08
2023-02-20T18:13:02.293Z,11.06
2023-02-20T18:15:32.363Z,11.06
2023-02-20T18:18:00.804Z,11.06
2023-02-20T18:20:29.974Z,11.05
2023-02-20T18:22:59.392Z,11.03
2023-02-20T18:25:39.654Z,11.03
2023-02-20T18:28:08.871Z,11.01
2023-02-20T18:30:39.325Z,11.01
2023-02-20T18:33:07.655Z,11.00
2023-02-20T18:35:36.484Z,10.99
2023-02-20T18:38:04.964Z,11.00
2023-02-20T18:40:33.178Z,10.99
2023-02-20T18:43:01.434Z,10.98
2023-02-20T18:45:29.803Z,10.99
2023-02-20T18:47:59.446Z,10.97
2023-02-20T18:50:27.718Z,10.95
2023-02-20T18:52:56.117Z,10.93
2023-02-20T18:55:24.602Z,10.92
2023-02-20T18:57:54.575Z,10.91
2023-02-20T19:00:25.904Z,10.91
2023-02-20T19:02:57.160Z,10.91
2023-02-20T19:05:27.103Z,10.91
2023-02-20T19:07:55.864Z,10.89
2023-02-20T19:10:27.502Z,10.88
2023-02-20T19:12:56.365Z,10.88
2023-02-20T19:15:25.095Z,10.87
2023-02-20T19:17:54.854Z,10.88
2023-02-20T19:20:29.137Z,10.88
2023-02-20T19:22:58.431Z,10.87
2023-02-20T19:25:26.918Z,10.87
2023-02-20T19:27:55.258Z,10.87
2023-02-20T19:30:23.603Z,10.86
2023-02-20T19:32:51.887Z,10.88
2023-02-20T19:35:20.401Z,10.88
2023-02-20T19:37:50.040Z,10.88
2023-02-20T19:40:18.574Z,10.85
2023-02-20T19:42:46.847Z,10.84
2023-02-20T19:45:15.156Z,10.84
2023-02-20T19:47:43.380Z,10.83
2023-02-20T19:50:12.130Z,10.86
2023-02-20T19:52:43.015Z,10.88
2023-02-20T19:55:19.009Z,10.90
2023-02-20T19:57:47.324Z,10.92
2023-02-20T20:00:18.250Z,10.92
2023-02-20T20:02:47.130Z,10.94
2023-02-20T20:05:17.462Z,10.95
2023-02-20T20:07:46.000Z,10.97
2023-02-20T20:10:15.748Z,10.98
2023-02-20T20:12:50.422Z,11.00
2023-02-20T20:15:21.792Z,11.01
2023-02-20T20:17:54.209Z,11.00
2023-02-20T20:20:24.903Z,10.98
2023-02-20T20:22:56.407Z,10.98
2023-02-20T20:25:26.387Z,10.98
2023-02-20T20:27:57.707Z,10.97
2023-02-20T20:30:28.686Z,10.98
2023-02-20T20:32:57.673Z,10.99
2023-02-20T20:35:28.430Z,11.01
2023-02-20T20:37:57.431Z,11.01
2023-02-20T20:40:28.151Z,11.01
2023-02-20T20:42:58.009Z,11.01
2023-02-20T20:45:26.571Z,11.05
2023-02-20T20:47:54.936Z,11.06
2023-02-20T20:50:28.023Z,11.06
2023-02-20T20:53:00.749Z,11.10
2023-02-20T20:55:30.790Z,11.12
2023-02-20T20:57:59.117Z,11.15
2023-02-20T21:00:30.588Z,11.19
2023-02-20T21:02:59.036Z,11.22
2023-02-20T21:05:31.454Z,11.25
2023-02-20T21:08:00.512Z,11.29
2023-02-20T21:10:30.474Z,11.29
2023-02-20T21:12:59.166Z,11.30
2023-02-20T21:15:28.367Z,11.29
2023-02-20T21:17:56.788Z,11.28
2023-02-20T21:20:29.474Z,11.26
2023-02-20T21:22:58.426Z,11.23
2023-02-20T21:25:26.860Z,11.22
2023-02-20T21:27:58.655Z,11.18
2023-02-20T21:30:28.777Z,11.20
2023-02-20T21:32:57.634Z,11.19
2023-02-20T21:35:26.278Z,11.18
2023-02-20T21:37:55.072Z,11.16
2023-02-20T21:40:23.325Z,11.14
2023-02-20T21:43:09.215Z,11.14
2023-02-20T21:45:38.993Z,11.12
2023-02-20T21:48:07.573Z,11.13
2023-02-20T21:50:36.036Z,11.13
2023-02-20T21:53:04.776Z,11.14
2023-02-20T21:55:33.321Z,11.12
2023-02-20T21:58:06.560Z,11.11
2023-02-20T22:00:33.668Z,11.10
2023-02-20T22:03:02.354Z,11.11
2023-02-20T22:05:29.538Z,11.11
2023-02-20T22:08:15.453Z,11.10
2023-02-20T22:11:01.324Z,11.07
2023-02-20T22:13:46.974Z,11.06
2023-02-20T22:16:37.480Z,11.05
2023-02-20T22:19:24.447Z,11.06
2023-02-20T22:22:11.018Z,11.05
2023-02-20T22:24:56.867Z,11.07
2023-02-20T22:27:42.608Z,11.09
2023-02-20T22:30:29.854Z,11.10
2023-02-20T22:33:15.792Z,11.10
2023-02-20T22:36:03.013Z,11.10
2023-02-20T22:38:48.665Z,11.10
2023-02-20T22:41:37.863Z,11.07
2023-02-20T22:44:23.571Z,11.07
2023-02-20T22:47:09.378Z,11.07
2023-02-20T22:49:54.764Z,11.09
2023-02-20T22:52:41.768Z,11.09
2023-02-20T22:55:29.679Z,11.09
2023-02-20T22:58:15.359Z,11.06
2023-02-20T23:01:01.028Z,11.08
2023-02-20T23:03:46.938Z,11.10
2023-02-20T23:06:37.419Z,11.09
2023-02-20T23:09:25.249Z,11.10
2023-02-20T23:12:11.913Z,11.11
2023-02-20T23:14:57.951Z,11.12
2023-02-20T23:17:44.305Z,11.13
2023-02-20T23:20:35.094Z,11.14
2023-02-20T23:23:22.274Z,11.16
2023-02-20T23:26:09.719Z,11.18
2023-02-20T23:28:55.583Z,11.20
2023-02-20T23:31:50.952Z,11.22
2023-02-20T23:34:36.603Z,11.22
2023-02-20T23:37:22.689Z,11.23
2023-02-20T23:40:08.267Z,11.25
2023-02-20T23:42:55.447Z,11.23
2023-02-20T23:45:41.932Z,11.25
2023-02-20T23:48:27.732Z,11.24
2023-02-20T23:51:13.814Z,11.25
2023-02-20T23:54:00.061Z,11.24
2023-02-20T23:56:46.363Z,11.27
2023-02-20T23:59:33.502Z,11.27
